Time;durP1;ratioP1;P1;durP2;ratioP2;P2;SDS_P1;SDS_P2;PMS_P1;PMS_P2;Temp;Humidity;BMP_temperature;BMP_pressure;BME280_temperature;BME280_humidity;BME280_pressure;Samples;Min_cycle;Max_cycle;Signal;HPM_P1;HPM_P2
2022/03/27 00:02:05;;;;;;;10.07;4.75;;;13.70;64.60;;;;;;5135348;28;20030;-67
2022/03/27 00:04:30;;;;;;;7.75;4.90;;;13.70;64.50;;;;;;5135160;28;20020;-67
2022/03/27 00:06:57;;;;;;;10.25;4.90;;;13.70;64.60;;;;;;5135135;28;20051;-67
2022/03/27 00:09:22;;;;;;;9.45;5.00;;;13.60;64.40;;;;;;5135110;28;20031;-67
2022/03/27 00:11:48;;;;;;;9.88;4.88;;;13.50;64.90;;;;;;5135039;28;20032;-68
2022/03/27 00:14:13;;;;;;;10.43;5.13;;;13.40;64.80;;;;;;5134929;28;20023;-67
2022/03/27 00:16:39;;;;;;;7.65;4.72;;;13.40;64.60;;;;;;5134849;28;20034;-67
2022/03/27 00:19:06;;;;;;;9.05;4.50;;;13.50;64.70;;;;;;5134907;28;20026;-67
2022/03/27 00:21:32;;;;;;;6.72;4.53;;;13.40;64.10;;;;;;5134634;28;20031;-67
2022/03/27 00:23:58;;;;;;;8.30;4.50;;;13.40;63.90;;;;;;5134962;28;20052;-67
2022/03/27 00:26:24;;;;;;;7.88;4.95;;;13.40;63.50;;;;;;5134685;28;20031;-67
2022/03/27 00:28:50;;;;;;;11.15;4.95;;;13.40;63.70;;;;;;5134643;28;20088;-68
2022/03/27 00:31:17;;;;;;;8.73;4.60;;;13.40;64.10;;;;;;5134660;28;20028;-68
2022/03/27 00:33:44;;;;;;;8.15;5.10;;;13.40;64.10;;;;;;5134645;28;20024;-68
2022/03/27 00:36:13;;;;;;;11.00;5.60;;;13.20;64.10;;;;;;5134485;28;20024;-68
2022/03/27 00:38:39;;;;;;;9.35;5.13;;;13.20;64.40;;;;;;5134554;28;20024;-68
2022/03/27 00:41:05;;;;;;;7.85;4.82;;;13.10;64.60;;;;;;5134486;28;20019;-68
2022/03/27 00:43:33;;;;;;;11.13;4.90;;;13.00;65.60;;;;;;5134453;28;20026;-68
2022/03/27 00:45:59;;;;;;;10.23;4.88;;;13.00;65.00;;;;;;5134421;28;20019;-68
2022/03/27 00:48:25;;;;;;;7.03;4.60;;;13.10;64.70;;;;;;5134312;28;20031;-66
2022/03/27 00:50:53;;;;;;;9.05;5.18;;;12.80;64.90;;;;;;5134319;28;20023;-67
2022/03/27 00:53:19;;;;;;;7.82;5.00;;;12.80;65.00;;;;;;5133431;28;20037;-68
2022/03/27 00:55:45;;;;;;;9.88;5.57;;;12.80;65.30;;;;;;5134224;28;20050;-67
2022/03/27 00:58:12;;;;;;;9.57;5.93;;;12.80;65.60;;;;;;5134127;28;20035;-67
2022/03/27 01:00:38;;;;;;;9.95;6.10;;;12.80;65.90;;;;;;5134130;28;20023;-67
2022/03/27 01:03:15;;;;;;;8.95;5.90;;;12.80;66.40;;;;;;5134091;28;20024;-67
2022/03/27 01:05:42;;;;;;;10.00;6.15;;;12.70;66.60;;;;;;5134155;28;20031;-68
2022/03/27 01:08:10;;;;;;;10.00;6.05;;;12.70;66.40;;;;;;5134058;28;20024;-68
2022/03/27 01:10:37;;;;;;;11.68;6.40;;;12.80;66.40;;;;;;5134047;28;20043;-68
2022/03/27 01:13:25;;;;;;;11.25;6.55;;;12.80;66.40;;;;;;5133988;28;20020;-68
2022/03/27 01:15:56;;;;;;;13.02;7.03;;;12.80;66.50;;;;;;5134024;28;20019;-67
2022/03/27 01:18:22;;;;;;;13.50;7.38;;;12.70;67.20;;;;;;5133859;28;20036;-67
2022/03/27 01:20:48;;;;;;;13.30;7.03;;;12.60;67.80;;;;;;5133928;28;20094;-68
2022/03/27 01:23:15;;;;;;;12.65;7.38;;;12.60;67.90;;;;;;5133747;28;20055;-68
2022/03/27 01:25:45;;;;;;;14.02;7.80;;;12.60;67.90;;;;;;5133806;28;20016;-68
2022/03/27 01:28:14;;;;;;;13.07;7.57;;;12.60;68.30;;;;;;5133753;28;20036;-68
2022/03/27 01:30:40;;;;;;;12.02;7.22;;;12.50;68.90;;;;;;5133807;28;20023;-67
2022/03/27 01:33:09;;;;;;;14.15;8.63;;;12.40;69.30;;;;;;5133790;28;20031;-67
2022/03/27 01:35:36;;;;;;;17.00;8.15;;;12.40;69.60;;;;;;5133749;28;20031;-67
2022/03/27 01:38:02;;;;;;;15.95;9.02;;;12.30;70.50;;;;;;5133670;28;20028;-67
2022/03/27 01:40:27;;;;;;;16.13;8.43;;;12.40;70.20;;;;;;5133700;28;20059;-67
2022/03/27 01:42:55;;;;;;;13.40;8.48;;;12.40;71.60;;;;;;5132629;28;20079;-68
2022/03/27 01:45:22;;;;;;;15.75;8.38;;;12.40;71.70;;;;;;5133690;28;20022;-67
2022/03/27 01:47:48;;;;;;;15.20;7.47;;;12.40;71.40;;;;;;5133626;28;20028;-67
2022/03/27 01:50:13;;;;;;;13.45;8.00;;;12.30;71.20;;;;;;5133607;28;20024;-67
2022/03/27 01:52:39;;;;;;;15.00;8.63;;;12.40;71.20;;;;;;5133561;28;20055;-67
2022/03/27 01:55:16;;;;;;;13.38;8.05;;;12.40;71.00;;;;;;5133552;28;20034;-67
2022/03/27 01:57:43;;;;;;;13.68;8.20;;;12.50;70.90;;;;;;5133680;28;20111;-67
2022/03/27 02:00:12;;;;;;;12.45;7.57;;;12.50;71.10;;;;;;5133504;28;20016;-67
2022/03/27 02:02:37;;;;;;;12.75;7.70;;;12.50;71.00;;;;;;5133528;28;20015;-68
2022/03/27 02:05:04;;;;;;;14.35;8.07;;;12.50;71.00;;;;;;5136786;28;20027;-68
2022/03/27 02:07:43;;;;;;;15.20;8.15;;;12.50;70.90;;;;;;5137506;28;20016;-68
2022/03/27 02:10:09;;;;;;;15.43;8.10;;;12.40;71.40;;;;;;5136562;28;20051;-68
2022/03/27 02:12:35;;;;;;;14.27;7.95;;;12.30;71.70;;;;;;5137417;28;20019;-67
2022/03/27 02:15:10;;;;;;;12.25;7.47;;;12.20;71.60;;;;;;5137459;28;20035;-67
2022/03/27 02:17:38;;;;;;;12.70;8.10;;;12.20;71.80;;;;;;5137251;28;20379;-67
2022/03/27 02:20:08;;;;;;;12.90;7.90;;;12.20;72.00;;;;;;5137228;28;20024;-66
2022/03/27 02:22:34;;;;;;;17.73;8.60;;;12.10;73.10;;;;;;5136973;28;20035;-67
2022/03/27 02:24:59;;;;;;;16.42;8.50;;;12.00;73.10;;;;;;5137154;28;20024;-67
2022/03/27 02:27:25;;;;;;;15.95;9.32;;;12.00;72.60;;;;;;5136997;28;20031;-68
2022/03/27 02:29:50;;;;;;;15.40;9.50;;;11.90;73.80;;;;;;5137043;28;20521;-68
2022/03/27 02:32:16;;;;;;;17.63;9.35;;;11.90;74.00;;;;;;5136974;28;20023;-68
2022/03/27 02:34:41;;;;;;;16.25;9.32;;;11.90;73.50;;;;;;5136926;28;20036;-68
2022/03/27 02:37:07;;;;;;;16.80;9.85;;;11.90;74.10;;;;;;5136782;28;20043;-68
2022/03/27 02:39:33;;;;;;;19.70;10.52;;;11.90;73.80;;;;;;5136871;28;20016;-69
2022/03/27 02:41:59;;;;;;;18.05;9.73;;;11.90;73.60;;;;;;5136801;28;20047;-69
2022/03/27 02:44:24;;;;;;;19.75;10.48;;;11.90;73.90;;;;;;5136759;28;20024;-69
2022/03/27 02:46:50;;;;;;;16.73;10.20;;;11.90;74.80;;;;;;5136741;28;20333;-68
2022/03/27 02:49:20;;;;;;;19.00;10.77;;;11.90;73.90;;;;;;5135608;28;20032;-69
2022/03/27 02:51:46;;;;;;;19.27;10.45;;;11.90;74.00;;;;;;5136860;28;20020;-68
2022/03/27 02:54:12;;;;;;;17.23;9.98;;;11.70;74.80;;;;;;5136441;28;20038;-67
2022/03/27 02:56:38;;;;;;;20.70;10.10;;;11.70;74.70;;;;;;5136466;28;20037;-67
2022/03/27 02:59:04;;;;;;;19.02;10.45;;;11.80;74.30;;;;;;5136481;28;20055;-67
2022/03/27 03:01:31;;;;;;;18.08;10.13;;;11.90;73.80;;;;;;5136447;28;20022;-67
2022/03/27 03:03:57;;;;;;;18.45;10.52;;;11.90;73.70;;;;;;5136384;28;20055;-67
2022/03/27 03:06:24;;;;;;;18.65;10.80;;;11.90;73.80;;;;;;5136336;28;20038;-68
2022/03/27 03:08:50;;;;;;;18.58;10.10;;;11.90;73.70;;;;;;5136337;28;20019;-67
2022/03/27 03:11:16;;;;;;;19.02;9.88;;;11.90;73.70;;;;;;5136253;28;20053;-67
2022/03/27 03:13:44;;;;;;;18.30;10.15;;;11.90;73.50;;;;;;5135323;28;20031;-67
2022/03/27 03:16:10;;;;;;;17.98;9.63;;;11.90;73.60;;;;;;5135179;28;20015;-67
2022/03/27 03:18:36;;;;;;;18.85;9.85;;;11.80;73.70;;;;;;5136089;28;20024;-67
2022/03/27 03:21:03;;;;;;;17.77;9.40;;;11.80;73.70;;;;;;5136094;28;20023;-67
2022/03/27 03:23:28;;;;;;;18.45;9.45;;;11.70;73.80;;;;;;5135879;28;20392;-67
2022/03/27 03:25:55;;;;;;;22.67;11.00;;;11.70;74.00;;;;;;5135983;28;20020;-67
2022/03/27 03:28:20;;;;;;;22.65;10.63;;;11.70;73.80;;;;;;5135879;28;20034;-67
2022/03/27 03:30:47;;;;;;;19.85;10.27;;;11.70;73.90;;;;;;5135884;28;20020;-67
2022/03/27 03:33:12;;;;;;;23.02;11.75;;;11.70;74.20;;;;;;5135847;28;20039;-67
2022/03/27 03:35:39;;;;;;;24.77;11.63;;;11.70;74.10;;;;;;5135763;28;20028;-68
2022/03/27 03:38:05;;;;;;;22.55;11.07;;;11.60;74.50;;;;;;5135697;28;20031;-68
2022/03/27 03:40:31;;;;;;;24.98;12.30;;;11.60;74.20;;;;;;5135832;28;20437;-68
2022/03/27 03:42:58;;;;;;;25.42;11.73;;;11.60;74.10;;;;;;5135596;28;20015;-68
2022/03/27 03:45:23;;;;;;;25.15;12.50;;;11.70;74.10;;;;;;5135598;28;20079;-68
2022/03/27 03:47:49;;;;;;;25.20;12.23;;;11.70;74.00;;;;;;5135514;28;20447;-68
2022/03/27 03:50:15;;;;;;;26.63;12.15;;;11.60;74.80;;;;;;5135458;28;20028;-68
2022/03/27 03:52:41;;;;;;;24.40;12.25;;;11.60;74.50;;;;;;5135457;28;20024;-68
2022/03/27 03:55:08;;;;;;;26.90;12.52;;;11.60;74.50;;;;;;5134387;28;20031;-68
2022/03/27 03:57:33;;;;;;;26.02;12.80;;;11.60;74.60;;;;;;5135339;28;20028;-68
2022/03/27 03:59:59;;;;;;;25.85;13.27;;;11.60;74.30;;;;;;5135277;28;20043;-68
2022/03/27 04:02:25;;;;;;;25.77;12.48;;;11.60;74.40;;;;;;5135222;28;20027;-68
2022/03/27 04:04:50;;;;;;;26.55;12.95;;;11.70;74.20;;;;;;5134261;28;20024;-68
2022/03/27 04:07:16;;;;;;;27.20;12.90;;;11.70;74.10;;;;;;5135128;28;20447;-68
2022/03/27 04:09:42;;;;;;;28.73;12.73;;;11.70;74.00;;;;;;5135130;28;20040;-68
2022/03/27 04:12:08;;;;;;;27.13;12.30;;;11.70;74.10;;;;;;5135004;28;20027;-68
2022/03/27 04:14:36;;;;;;;28.45;13.88;;;11.80;73.90;;;;;;5135095;28;20028;-68
2022/03/27 04:17:05;;;;;;;30.05;13.85;;;11.80;73.80;;;;;;5134893;28;20035;-68
2022/03/27 04:19:31;;;;;;;30.08;12.55;;;11.90;73.70;;;;;;5134896;28;20039;-68
2022/03/27 04:21:57;;;;;;;28.67;12.45;;;11.90;73.50;;;;;;5134610;28;20048;-68
2022/03/27 04:24:23;;;;;;;27.77;12.95;;;11.90;73.50;;;;;;5134825;28;20095;-68
2022/03/27 04:26:48;;;;;;;27.00;12.88;;;11.80;73.50;;;;;;5134723;28;20028;-68
2022/03/27 04:29:14;;;;;;;28.08;12.52;;;11.80;73.70;;;;;;5134610;28;20032;-68
2022/03/27 04:31:40;;;;;;;29.23;13.27;;;11.80;73.70;;;;;;5134662;28;20083;-68
2022/03/27 04:34:07;;;;;;;30.17;13.35;;;11.70;73.80;;;;;;5134630;28;20028;-68
2022/03/27 04:36:32;;;;;;;28.05;13.00;;;11.70;73.90;;;;;;5134495;28;20042;-68
2022/03/27 04:38:58;;;;;;;31.95;14.82;;;11.70;73.90;;;;;;5134507;28;20031;-67
2022/03/27 04:41:24;;;;;;;32.00;14.40;;;11.70;74.00;;;;;;5134619;28;20023;-67
2022/03/27 04:43:50;;;;;;;30.77;14.10;;;11.70;74.30;;;;;;5134462;28;20032;-67
2022/03/27 04:46:17;;;;;;;28.50;13.18;;;11.60;74.20;;;;;;5134303;28;20033;-67
2022/03/27 04:48:44;;;;;;;30.52;12.25;;;11.60;74.30;;;;;;5134375;28;20079;-67
2022/03/27 04:51:10;;;;;;;25.83;11.13;;;11.50;74.50;;;;;;5134345;28;20085;-67
2022/03/27 04:53:36;;;;;;;24.25;11.63;;;11.50;75.40;;;;;;5134311;28;20072;-67
2022/03/27 04:56:01;;;;;;;25.77;11.55;;;11.40;74.50;;;;;;5134271;28;20051;-67
2022/03/27 04:58:27;;;;;;;25.90;11.73;;;11.40;74.50;;;;;;5134144;28;20035;-67
2022/03/27 05:00:52;;;;;;;26.80;11.45;;;11.40;74.80;;;;;;5134256;28;20028;-67
2022/03/27 05:03:18;;;;;;;27.10;11.40;;;11.30;74.70;;;;;;5134091;28;20078;-67
2022/03/27 05:05:44;;;;;;;27.95;12.23;;;11.30;74.70;;;;;;5133103;28;20039;-67
2022/03/27 05:08:09;;;;;;;27.85;11.30;;;11.20;74.80;;;;;;5134106;28;20024;-67
2022/03/27 05:10:35;;;;;;;26.23;11.23;;;11.20;74.90;;;;;;5134048;28;20032;-67
2022/03/27 05:13:01;;;;;;;24.50;11.15;;;11.20;74.90;;;;;;5134118;28;20069;-67
2022/03/27 05:15:27;;;;;;;26.95;11.35;;;11.20;75.00;;;;;;5133986;28;20031;-67
2022/03/27 05:17:55;;;;;;;26.10;12.02;;;11.20;75.00;;;;;;5133994;28;20095;-68
2022/03/27 05:20:21;;;;;;;26.40;11.43;;;11.20;74.90;;;;;;5132899;28;20058;-67
2022/03/27 05:22:47;;;;;;;29.70;12.02;;;11.20;75.10;;;;;;5133518;28;20040;-67
2022/03/27 05:25:15;;;;;;;26.25;11.02;;;11.10;75.30;;;;;;5133845;28;20115;-67
2022/03/27 05:27:53;;;;;;;25.33;11.07;;;11.00;75.20;;;;;;5133902;28;20083;-67
2022/03/27 05:30:21;;;;;;;25.48;10.40;;;11.10;74.90;;;;;;5133863;28;20110;-67
2022/03/27 05:32:48;;;;;;;23.58;9.95;;;11.10;74.70;;;;;;5133828;28;20031;-67
2022/03/27 05:35:14;;;;;;;24.83;9.77;;;11.10;74.50;;;;;;5133780;28;20087;-67
2022/03/27 05:37:42;;;;;;;21.98;9.82;;;11.10;74.30;;;;;;5133701;28;20369;-68
2022/03/27 05:40:10;;;;;;;25.10;10.20;;;11.10;74.30;;;;;;5137376;28;20019;-67
2022/03/27 05:42:36;;;;;;;25.70;11.00;;;11.10;74.30;;;;;;5137950;28;20031;-67
2022/03/27 05:45:06;;;;;;;22.05;9.95;;;11.10;74.20;;;;;;5137896;28;20024;-68
2022/03/27 05:47:32;;;;;;;20.90;9.63;;;11.00;74.10;;;;;;5137965;28;20052;-68
2022/03/27 05:49:59;;;;;;;22.52;10.57;;;11.00;74.10;;;;;;5137881;28;20024;-68
2022/03/27 05:52:24;;;;;;;25.42;11.10;;;11.00;74.20;;;;;;5137780;28;20036;-68
2022/03/27 05:54:51;;;;;;;23.88;10.10;;;11.00;74.20;;;;;;5137900;28;20043;-68
2022/03/27 05:57:18;;;;;;;23.13;9.65;;;11.00;74.20;;;;;;5137669;28;20032;-68
2022/03/27 05:59:47;;;;;;;23.15;10.23;;;10.90;74.40;;;;;;5137637;28;20016;-68
2022/03/27 06:02:14;;;;;;;21.10;9.23;;;10.90;74.40;;;;;;5137636;28;20028;-68
2022/03/27 06:04:41;;;;;;;20.55;9.32;;;10.90;74.40;;;;;;5137564;28;20041;-68
2022/03/27 06:07:08;;;;;;;21.48;9.68;;;10.80;74.90;;;;;;5137668;28;20094;-67
2022/03/27 06:09:34;;;;;;;23.27;9.88;;;10.80;74.80;;;;;;5137501;28;20039;-67
2022/03/27 06:12:00;;;;;;;22.23;9.52;;;10.70;75.00;;;;;;5137446;28;20024;-67
2022/03/27 06:14:26;;;;;;;22.08;10.55;;;10.70;75.10;;;;;;5137514;28;20048;-67
2022/03/27 06:16:52;;;;;;;26.42;11.25;;;10.70;75.30;;;;;;5137284;28;20042;-67
2022/03/27 06:19:18;;;;;;;25.17;11.38;;;10.70;75.40;;;;;;5137271;28;20028;-67
2022/03/27 06:21:44;;;;;;;24.98;11.60;;;10.70;75.50;;;;;;5137045;28;20036;-67
2022/03/27 06:24:12;;;;;;;25.38;10.55;;;10.60;75.60;;;;;;5137276;28;20027;-67
2022/03/27 06:26:38;;;;;;;23.75;11.10;;;10.60;75.50;;;;;;5137153;28;20107;-68
2022/03/27 06:29:03;;;;;;;24.48;11.20;;;10.70;75.50;;;;;;5136687;28;20028;-67
2022/03/27 06:31:29;;;;;;;21.55;10.40;;;10.70;75.20;;;;;;5137027;28;20030;-67
2022/03/27 06:33:55;;;;;;;19.63;9.60;;;10.80;74.90;;;;;;5136012;28;20034;-68
2022/03/27 06:36:20;;;;;;;18.83;9.13;;;10.80;74.60;;;;;;5135834;28;20032;-67
2022/03/27 06:38:46;;;;;;;20.30;9.20;;;10.70;74.40;;;;;;5136767;28;20035;-68
2022/03/27 06:41:11;;;;;;;20.95;8.77;;;10.70;74.30;;;;;;5136991;28;20023;-68
2022/03/27 06:43:37;;;;;;;17.27;8.50;;;10.80;75.10;;;;;;5136807;28;20027;-68
2022/03/27 06:46:03;;;;;;;18.48;8.38;;;10.70;74.00;;;;;;5135864;28;20039;-68
2022/03/27 06:48:29;;;;;;;21.33;8.88;;;10.70;74.30;;;;;;5136695;28;20081;-68
2022/03/27 06:50:54;;;;;;;17.58;8.05;;;10.70;74.40;;;;;;5135292;28;20030;-68
2022/03/27 06:53:24;;;;;;;15.43;7.70;;;10.60;74.30;;;;;;5135645;28;20020;-68
2022/03/27 06:55:50;;;;;;;18.63;8.02;;;10.70;74.00;;;;;;5135718;28;20028;-67
2022/03/27 06:58:16;;;;;;;17.00;7.50;;;10.60;74.00;;;;;;5136468;28;20039;-68
2022/03/27 07:03:26;;;;;;;16.75;8.20;;;10.70;74.10;;;;;;5136534;28;20043;-69
2022/03/27 07:05:52;;;;;;;19.20;8.48;;;10.60;73.80;;;;;;5136410;28;20079;-69
2022/03/27 07:08:22;;;;;;;18.75;8.20;;;10.60;73.80;;;;;;5136318;28;20053;-69
2022/03/27 07:10:49;;;;;;;18.08;8.52;;;10.70;73.90;;;;;;5136330;28;20035;-68
2022/03/27 07:13:17;;;;;;;16.23;7.53;;;10.70;73.70;;;;;;5136231;28;20087;-69
2022/03/27 07:15:44;;;;;;;16.30;7.90;;;10.70;73.70;;;;;;5136169;27;20028;-69
2022/03/27 07:18:11;;;;;;;17.42;7.70;;;10.70;73.60;;;;;;5136037;28;20028;-68
2022/03/27 07:20:41;;;;;;;17.77;8.18;;;10.70;73.60;;;;;;5136099;28;20027;-67
2022/03/27 07:23:09;;;;;;;16.30;8.15;;;10.70;73.50;;;;;;5135930;28;20499;-68
2022/03/27 07:25:38;;;;;;;15.63;7.40;;;10.70;73.40;;;;;;5136023;28;20023;-67
2022/03/27 07:28:05;;;;;;;19.10;8.07;;;10.80;73.20;;;;;;5135886;28;20043;-67
2022/03/27 07:30:32;;;;;;;17.08;7.72;;;10.70;73.10;;;;;;5136045;28;20042;-68
2022/03/27 07:32:57;;;;;;;17.55;8.00;;;10.80;73.20;;;;;;5135859;28;20028;-68
2022/03/27 07:35:24;;;;;;;16.55;7.88;;;10.80;73.20;;;;;;5135778;28;20047;-69
2022/03/27 07:37:51;;;;;;;17.95;8.18;;;10.80;73.30;;;;;;5135701;28;20032;-68
2022/03/27 07:40:18;;;;;;;17.30;7.53;;;10.80;73.30;;;;;;5135754;28;20011;-68
2022/03/27 07:42:49;;;;;;;17.30;8.10;;;10.80;73.30;;;;;;5135621;28;20332;-67
2022/03/27 07:45:19;;;;;;;15.47;7.53;;;10.80;73.20;;;;;;5135697;28;20099;-68
2022/03/27 07:47:45;;;;;;;20.30;8.38;;;10.80;73.30;;;;;;5135637;28;20057;-67
2022/03/27 07:50:11;;;;;;;17.98;8.00;;;10.80;73.30;;;;;;5135440;28;20052;-68
2022/03/27 07:52:38;;;;;;;17.95;8.02;;;10.80;73.40;;;;;;5135468;28;20024;-67
2022/03/27 07:55:05;;;;;;;15.52;7.55;;;10.80;73.30;;;;;;5135435;28;20030;-67
2022/03/27 07:57:31;;;;;;;18.55;8.40;;;10.80;73.30;;;;;;5135359;28;20058;-67
2022/03/27 07:59:57;;;;;;;18.90;7.82;;;10.80;73.20;;;;;;5135268;28;20051;-67
2022/03/27 08:02:23;;;;;;;18.00;7.82;;;10.80;73.20;;;;;;5134801;28;20027;-67
2022/03/27 08:04:48;;;;;;;17.05;8.10;;;10.80;73.30;;;;;;5135212;28;20016;-68
2022/03/27 08:07:14;;;;;;;18.92;8.38;;;10.80;73.40;;;;;;5135152;28;20031;-67
2022/03/27 08:09:41;;;;;;;18.00;7.80;;;10.80;73.70;;;;;;5135111;27;20027;-67
2022/03/27 08:12:08;;;;;;;16.83;7.45;;;10.80;73.50;;;;;;5135052;28;20024;-67
2022/03/27 08:14:38;;;;;;;17.75;8.73;;;10.80;73.40;;;;;;5134999;27;20049;-67
2022/03/27 08:17:04;;;;;;;18.00;8.02;;;10.90;73.30;;;;;;5134916;28;20019;-67
2022/03/27 08:19:30;;;;;;;18.10;8.32;;;10.90;73.70;;;;;;5134957;28;20026;-67
2022/03/27 08:21:56;;;;;;;17.17;8.00;;;10.90;73.40;;;;;;5134609;28;20021;-67
2022/03/27 08:24:22;;;;;;;17.08;7.70;;;10.90;73.40;;;;;;5134753;28;20051;-68
2022/03/27 08:27:00;;;;;;;17.63;8.32;;;10.90;73.20;;;;;;5133779;28;20027;-68
2022/03/27 08:29:37;;;;;;;18.27;8.38;;;10.80;73.50;;;;;;5134679;28;20020;-67
2022/03/27 08:32:05;;;;;;;16.13;8.15;;;10.70;73.40;;;;;;5134724;28;20023;-68
2022/03/27 08:34:34;;;;;;;16.65;8.07;;;10.70;73.80;;;;;;5134721;27;20024;-68
2022/03/27 08:37:01;;;;;;;16.90;8.07;;;10.80;74.20;;;;;;5134533;28;20023;-68
2022/03/27 08:39:27;;;;;;;14.82;7.20;;;10.90;73.90;;;;;;5134568;28;20016;-68
2022/03/27 08:41:54;;;;;;;15.30;7.28;;;11.00;73.40;;;;;;5134513;28;20020;-68
2022/03/27 08:44:21;;;;;;;18.08;8.35;;;11.10;73.10;;;;;;5134467;28;20023;-68
2022/03/27 08:46:49;;;;;;;15.48;7.55;;;11.20;72.30;;;;;;5134359;28;20028;-68
2022/03/27 08:49:39;;;;;;;15.90;7.20;;;11.40;72.30;;;;;;5134407;28;20019;-68
2022/03/27 08:52:17;;;;;;;14.60;7.47;;;11.50;71.60;;;;;;5134307;28;20019;-68
2022/03/27 08:54:47;;;;;;;14.15;7.47;;;11.60;71.10;;;;;;5134277;28;20073;-68
2022/03/27 08:57:22;;;;;;;13.27;6.93;;;11.80;70.60;;;;;;5134188;28;20038;-68
2022/03/27 08:59:53;;;;;;;15.30;7.65;;;11.90;70.60;;;;;;5134266;28;20062;-68
2022/03/27 09:02:22;;;;;;;14.30;7.25;;;12.10;69.80;;;;;;5134231;28;20521;-68
2022/03/27 09:04:53;;;;;;;14.68;7.80;;;12.20;68.90;;;;;;5134119;28;20022;-68
2022/03/27 09:07:19;;;;;;;13.45;7.05;;;12.30;68.80;;;;;;5133107;28;20028;-68
2022/03/27 09:09:44;;;;;;;14.43;8.15;;;12.40;68.70;;;;;;5134080;28;20023;-68
2022/03/27 09:12:11;;;;;;;12.77;6.97;;;12.60;68.30;;;;;;5133985;28;20110;-68
2022/03/27 09:14:39;;;;;;;13.27;6.93;;;12.80;67.40;;;;;;5133291;28;20030;-68
2022/03/27 09:17:07;;;;;;;14.63;8.02;;;12.90;66.50;;;;;;5133865;28;20024;-68
2022/03/27 09:19:43;;;;;;;13.70;7.32;;;13.00;65.70;;;;;;5133950;28;20016;-68
2022/03/27 09:22:16;;;;;;;14.50;7.47;;;13.10;65.00;;;;;;5133824;28;20026;-67
2022/03/27 09:24:46;;;;;;;15.00;7.18;;;13.00;65.60;;;;;;5133926;28;20031;-67
2022/03/27 09:27:12;;;;;;;13.40;6.90;;;13.20;65.90;;;;;;5133890;28;20023;-68
2022/03/27 09:30:00;;;;;;;16.65;7.55;;;13.30;62.90;;;;;;5132502;28;20077;-67
2022/03/27 09:32:35;;;;;;;14.70;7.40;;;13.30;64.30;;;;;;5133883;28;20034;-67
2022/03/27 09:35:09;;;;;;;16.80;7.50;;;13.40;64.50;;;;;;5133787;28;20020;-68
2022/03/27 09:37:38;;;;;;;13.50;7.57;;;13.60;64.40;;;;;;5133796;28;20512;-68
2022/03/27 09:40:06;;;;;;;12.93;7.05;;;13.80;64.50;;;;;;5133714;28;20095;-67
2022/03/27 09:48:19;;;;;;;14.35;7.50;;;14.20;62.20;;;;;;5132518;28;20024;-68
2022/03/27 09:50:45;;;;;;;13.90;7.20;;;14.20;61.80;;;;;;5133578;28;20028;-70
2022/03/27 09:53:40;;;;;;;13.52;6.93;;;14.20;61.70;;;;;;5133588;28;20032;-69
2022/03/27 09:56:05;;;;;;;13.40;7.18;;;14.50;61.40;;;;;;5115217;28;20048;-69
2022/03/27 09:58:37;;;;;;;15.10;7.57;;;14.50;60.80;;;;;;5133427;28;20035;-69
2022/03/27 10:06:50;;;;;;;13.82;6.90;;;14.70;60.00;;;;;;5133403;28;20032;-71
2022/03/27 10:09:16;;;;;;;12.23;7.00;;;14.90;59.70;;;;;;5133600;28;20035;-71
2022/03/27 10:11:43;;;;;;;13.32;6.75;;;15.00;59.40;;;;;;5133558;28;20034;-71
2022/03/27 10:14:09;;;;;;;13.45;6.93;;;15.10;59.20;;;;;;5133445;28;20066;-71
2022/03/27 10:16:38;;;;;;;12.90;6.90;;;15.30;59.50;;;;;;5133246;28;20032;-71
2022/03/27 10:19:03;;;;;;;12.98;6.97;;;15.40;58.60;;;;;;5133368;28;20061;-70
2022/03/27 10:21:30;;;;;;;11.60;7.07;;;15.40;56.60;;;;;;5132193;28;20028;-71
2022/03/27 10:24:01;;;;;;;12.38;6.70;;;15.30;57.40;;;;;;5133176;28;20051;-71
2022/03/27 10:26:27;;;;;;;11.55;6.85;;;15.40;57.90;;;;;;5137259;28;20110;-71
2022/03/27 10:28:54;;;;;;;10.73;6.63;;;15.50;58.00;;;;;;5137093;28;20034;-71
2022/03/27 10:31:21;;;;;;;13.82;6.82;;;15.60;57.50;;;;;;5136047;28;20024;-71
2022/03/27 10:33:50;;;;;;;11.75;7.10;;;15.80;58.30;;;;;;5137048;28;20020;-71
2022/03/27 10:36:16;;;;;;;14.25;7.50;;;15.90;56.60;;;;;;5136947;28;20020;-71
2022/03/27 10:38:50;;;;;;;12.95;6.75;;;15.90;55.10;;;;;;5136826;28;20392;-71
2022/03/27 10:41:43;;;;;;;12.18;6.25;;;15.80;55.90;;;;;;5136952;28;20483;-71
2022/03/27 10:44:38;;;;;;;15.20;6.43;;;15.90;54.90;;;;;;5136836;28;20045;-71
2022/03/27 10:47:15;;;;;;;11.25;6.05;;;16.00;54.70;;;;;;5136808;28;20054;-70
2022/03/27 10:50:00;;;;;;;11.32;6.03;;;16.10;55.10;;;;;;5136769;28;20015;-71
2022/03/27 10:52:26;;;;;;;11.38;6.68;;;16.30;54.60;;;;;;5136631;28;20027;-70
2022/03/27 10:55:00;;;;;;;9.88;5.82;;;16.40;53.00;;;;;;5136621;27;20066;-70
2022/03/27 10:57:31;;;;;;;11.43;6.38;;;16.40;53.30;;;;;;5136656;28;20039;-70
2022/03/27 10:59:57;;;;;;;10.90;6.22;;;16.50;52.50;;;;;;5136650;28;20024;-71
2022/03/27 11:02:43;;;;;;;11.00;6.13;;;16.50;51.20;;;;;;5136497;27;20038;-71
2022/03/27 11:05:28;;;;;;;12.95;6.90;;;16.60;52.30;;;;;;5136405;28;20012;-71
2022/03/27 11:08:17;;;;;;;10.32;6.38;;;16.60;52.00;;;;;;5136231;28;20032;-71
2022/03/27 11:10:51;;;;;;;11.35;5.70;;;16.60;49.50;;;;;;5136229;28;20035;-70
2022/03/27 11:13:30;;;;;;;11.25;5.95;;;16.50;49.70;;;;;;5136438;28;20024;-70
2022/03/27 11:16:05;;;;;;;11.35;6.47;;;16.20;49.00;;;;;;5136237;28;20020;-70
2022/03/27 11:18:40;;;;;;;12.13;6.50;;;16.20;49.70;;;;;;5136184;28;20059;-70
2022/03/27 11:21:07;;;;;;;11.18;6.57;;;16.20;50.90;;;;;;5136125;28;20098;-70
2022/03/27 11:23:51;;;;;;;11.05;6.57;;;16.40;51.10;;;;;;5135801;28;20069;-70
2022/03/27 11:26:20;;;;;;;12.65;6.10;;;16.60;50.20;;;;;;5136024;28;20028;-70
2022/03/27 11:28:49;;;;;;;11.48;6.38;;;16.80;50.50;;;;;;5135875;28;20032;-70
2022/03/27 11:31:25;;;;;;;10.90;6.72;;;17.00;50.90;;;;;;5135907;28;20097;-70
2022/03/27 11:34:12;;;;;;;10.48;6.45;;;17.20;49.40;;;;;;5135941;28;20026;-70
2022/03/27 11:36:40;;;;;;;11.05;6.43;;;17.20;47.80;;;;;;5135110;28;20028;-69
2022/03/27 11:39:11;;;;;;;11.90;7.00;;;17.20;49.10;;;;;;5135771;28;20034;-70
2022/03/27 11:41:44;;;;;;;12.43;6.47;;;17.30;48.50;;;;;;5135775;28;20016;-70
2022/03/27 11:47:35;;;;;;;9.98;6.45;;;17.30;47.10;;;;;;5135636;28;20038;-70
2022/03/27 11:50:01;;;;;;;11.68;6.97;;;17.30;48.00;;;;;;5135626;27;20023;-71
2022/03/27 11:52:27;;;;;;;12.18;7.35;;;17.40;48.10;;;;;;5135569;28;20032;-71
2022/03/27 11:55:12;;;;;;;12.52;7.22;;;17.50;48.10;;;;;;5135390;28;20032;-70
2022/03/27 11:57:53;;;;;;;12.65;6.68;;;17.70;46.90;;;;;;5135414;28;20019;-70
2022/03/27 12:00:42;;;;;;;10.52;6.57;;;17.80;45.90;;;;;;5135322;28;20020;-70
2022/03/27 12:03:19;;;;;;;10.95;6.93;;;17.80;45.20;;;;;;5135334;28;20043;-70
2022/03/27 12:05:45;;;;;;;11.30;6.75;;;17.90;46.60;;;;;;5135159;28;20031;-71
2022/03/27 12:08:16;;;;;;;10.35;6.63;;;17.90;45.80;;;;;;5135129;28;20027;-71
2022/03/27 12:10:49;;;;;;;12.80;6.80;;;17.90;45.60;;;;;;5135209;28;20020;-70
2022/03/27 12:13:15;;;;;;;12.30;7.40;;;18.10;46.40;;;;;;5135074;28;20083;-71
2022/03/27 12:15:52;;;;;;;12.10;6.80;;;18.20;45.10;;;;;;5135045;28;20114;-71
2022/03/27 12:18:43;;;;;;;10.98;6.05;;;18.20;44.30;;;;;;5134895;28;20097;-71
2022/03/27 12:21:12;;;;;;;11.52;6.38;;;18.30;44.10;;;;;;5134992;28;20016;-71
2022/03/27 12:23:40;;;;;;;10.55;6.15;;;18.40;43.50;;;;;;5134705;28;20040;-71
2022/03/27 12:29:40;;;;;;;10.27;6.15;;;18.50;43.40;;;;;;5134834;28;20564;-71
2022/03/27 12:32:17;;;;;;;9.82;5.28;;;18.60;43.40;;;;;;5134852;28;20024;-71
2022/03/27 12:34:49;;;;;;;12.18;6.00;;;18.60;40.90;;;;;;5134848;28;20028;-71
2022/03/27 12:37:19;;;;;;;8.98;6.00;;;18.60;41.40;;;;;;5134568;28;20034;-71
2022/03/27 12:39:48;;;;;;;9.35;5.93;;;18.70;40.20;;;;;;5134553;28;20046;-71
2022/03/27 12:42:33;;;;;;;8.93;5.88;;;18.70;40.60;;;;;;5133409;28;20034;-71
2022/03/27 12:45:06;;;;;;;11.13;5.90;;;18.80;40.20;;;;;;5134511;28;20015;-70
2022/03/27 12:47:34;;;;;;;11.10;6.25;;;18.90;41.10;;;;;;5134501;28;20041;-71
2022/03/27 12:50:00;;;;;;;11.82;6.30;;;18.90;40.80;;;;;;5134376;28;20030;-70
2022/03/27 12:52:26;;;;;;;12.68;6.18;;;19.00;40.80;;;;;;5134382;28;20024;-71
2022/03/27 12:55:19;;;;;;;9.68;5.68;;;19.00;39.90;;;;;;5134319;28;20027;-71
2022/03/27 12:57:56;;;;;;;10.32;6.25;;;19.20;39.70;;;;;;5131997;28;20081;-71
2022/03/27 13:00:27;;;;;;;11.82;5.93;;;19.20;40.40;;;;;;5134232;28;20020;-71
2022/03/27 13:03:08;;;;;;;10.27;6.18;;;19.20;38.70;;;;;;5134253;28;20019;-71
2022/03/27 13:05:34;;;;;;;8.43;4.80;;;19.10;37.30;;;;;;5134096;28;20020;-71